createdAt,value
2018-06-05T00:02:16.795Z,5.90
2018-06-05T00:04:44.877Z,5.70
2018-06-05T00:07:12.972Z,6.60
2018-06-05T00:09:41.073Z,6.03
2018-06-05T00:12:09.143Z,5.90
2018-06-05T00:14:37.232Z,6.33
2018-06-05T00:17:05.490Z,5.73
2018-06-05T00:19:33.574Z,5.60
2018-06-05T00:22:01.660Z,6.10
2018-06-05T00:24:29.760Z,7.07
2018-06-05T00:26:57.875Z,5.60
2018-06-05T00:29:25.946Z,6.20
2018-06-05T00:31:54.035Z,5.90
2018-06-05T00:34:22.129Z,5.97
2018-06-05T00:36:50.197Z,7.00
2018-06-05T00:39:18.289Z,6.00
2018-06-05T00:41:46.168Z,6.53
2018-06-05T00:44:14.243Z,5.80
2018-06-05T00:46:42.336Z,6.57
2018-06-05T00:49:10.411Z,6.60
2018-06-05T00:52:15.316Z,6.20
2018-06-05T00:54:43.407Z,6.27
2018-06-05T00:57:11.479Z,6.70
2018-06-05T00:59:39.568Z,6.17
2018-06-05T01:02:07.642Z,6.53
2018-06-05T01:04:35.751Z,6.57
2018-06-05T01:07:03.864Z,6.33
2018-06-05T01:09:31.959Z,6.00
2018-06-05T01:12:00.043Z,6.40
2018-06-05T01:14:28.116Z,6.23
2018-06-05T01:16:56.200Z,6.80
2018-06-05T01:19:24.280Z,6.63
2018-06-05T01:21:52.376Z,6.07
2018-06-05T01:24:20.455Z,6.40
2018-06-05T01:26:48.552Z,6.40
2018-06-05T01:29:16.618Z,6.43
2018-06-05T01:31:44.699Z,6.10
2018-06-05T01:34:12.784Z,5.90
2018-06-05T01:36:40.871Z,6.63
2018-06-05T01:39:09.389Z,6.00
2018-06-05T01:41:38.004Z,6.07
2018-06-05T01:44:06.095Z,6.27
2018-06-05T01:46:34.187Z,6.77
2018-06-05T01:49:02.268Z,5.93
2018-06-05T01:51:30.389Z,6.07
2018-06-05T01:53:58.487Z,6.43
2018-06-05T01:56:26.575Z,5.90
2018-06-05T01:58:54.655Z,5.60
2018-06-05T02:01:22.763Z,6.30
2018-06-05T02:03:50.851Z,6.10
2018-06-05T02:06:18.962Z,6.03
2018-06-05T02:08:47.039Z,6.13
2018-06-05T02:11:15.174Z,6.17
2018-06-05T02:13:43.259Z,5.80
2018-06-05T02:16:11.385Z,6.67
2018-06-05T02:18:39.507Z,6.20
2018-06-05T02:21:07.599Z,5.70
2018-06-05T02:23:35.688Z,6.00
2018-06-05T02:26:03.775Z,5.60
2018-06-05T02:28:31.643Z,6.03
2018-06-05T02:30:59.514Z,6.10
2018-06-05T02:33:27.396Z,5.60
2018-06-05T02:35:55.488Z,5.80
2018-06-05T02:38:23.575Z,5.80
2018-06-05T02:40:53.465Z,5.40
2018-06-05T02:43:21.862Z,5.63
2018-06-05T02:45:50.059Z,5.60
2018-06-05T02:48:18.136Z,5.67
2018-06-05T02:50:46.223Z,5.77
2018-06-05T02:53:14.308Z,5.70
2018-06-05T02:55:42.407Z,5.60
2018-06-05T02:58:10.491Z,5.43
2018-06-05T03:00:38.592Z,5.37
2018-06-05T03:03:06.727Z,4.97
2018-06-05T03:05:34.811Z,5.20
2018-06-05T03:08:02.932Z,5.03
2018-06-05T03:10:31.050Z,5.40
2018-06-05T03:12:59.123Z,5.80
2018-06-05T03:15:27.215Z,5.37
2018-06-05T03:17:55.317Z,5.13
2018-06-05T03:20:23.434Z,5.10
2018-06-05T03:22:51.531Z,5.00
2018-06-05T03:25:19.618Z,5.20
2018-06-05T03:27:47.719Z,5.80
2018-06-05T03:30:15.820Z,4.83
2018-06-05T03:32:43.918Z,4.57
2018-06-05T03:35:12.035Z,4.63
2018-06-05T03:37:39.919Z,5.00
2018-06-05T03:40:08.007Z,4.70
2018-06-05T03:42:36.091Z,4.97
2018-06-05T03:45:04.348Z,4.67
2018-06-05T03:47:32.439Z,4.60
2018-06-05T03:50:00.556Z,4.53
2018-06-05T03:52:28.635Z,4.63
2018-06-05T03:54:56.722Z,4.47
2018-06-05T03:57:24.819Z,4.77
2018-06-05T03:59:52.931Z,5.43
2018-06-05T04:02:21.022Z,4.43
2018-06-05T04:04:49.135Z,4.60
2018-06-05T04:07:17.229Z,4.30
2018-06-05T04:09:45.319Z,4.50
2018-06-05T04:12:13.429Z,4.83
2018-06-05T04:14:41.511Z,4.97
2018-06-05T04:17:10.424Z,4.53
2018-06-05T04:19:38.518Z,4.37
2018-06-05T04:22:06.616Z,4.37
2018-06-05T04:24:34.702Z,4.13
2018-06-05T04:27:02.820Z,4.70
2018-06-05T04:29:30.899Z,4.67
2018-06-05T04:31:58.990Z,4.40
2018-06-05T04:34:27.078Z,4.40
2018-06-05T04:36:55.177Z,4.87
2018-06-05T04:39:23.265Z,4.10
2018-06-05T04:41:51.366Z,4.60
2018-06-05T04:44:19.451Z,4.27
2018-06-05T04:46:47.540Z,4.40
2018-06-05T04:49:15.643Z,4.60
2018-06-05T04:51:43.732Z,4.83
2018-06-05T04:54:11.965Z,4.30
2018-06-05T04:56:40.126Z,4.50
2018-06-05T04:59:08.209Z,4.33
2018-06-05T05:01:36.342Z,4.60
2018-06-05T05:04:04.452Z,4.57
2018-06-05T05:06:32.568Z,4.37
2018-06-05T05:09:00.671Z,3.93
2018-06-05T05:11:28.772Z,4.40
2018-06-05T05:13:56.871Z,3.83
2018-06-05T05:16:24.968Z,4.80
2018-06-05T05:18:53.043Z,4.67
2018-06-05T05:21:21.132Z,4.20
2018-06-05T05:23:49.245Z,4.60
2018-06-05T05:26:17.353Z,4.33
2018-06-05T05:28:45.444Z,4.60
2018-06-05T05:31:13.539Z,4.40
2018-06-05T05:33:41.618Z,4.40
2018-06-05T05:36:09.919Z,4.50
2018-06-05T05:38:38.016Z,4.20
2018-06-05T05:41:06.236Z,4.80
2018-06-05T05:43:34.331Z,4.40
2018-06-05T05:46:02.452Z,4.20
2018-06-05T05:48:30.639Z,4.27
2018-06-05T05:50:58.729Z,3.80
2018-06-05T05:53:26.804Z,4.33
2018-06-05T05:55:54.895Z,4.30
2018-06-05T05:58:23.027Z,4.03
2018-06-05T06:00:51.288Z,4.07
2018-06-05T06:03:19.391Z,4.00
2018-06-05T06:05:47.486Z,4.33
2018-06-05T06:08:15.570Z,4.40
2018-06-05T06:10:43.667Z,4.03
2018-06-05T06:13:11.763Z,4.43
2018-06-05T06:15:39.846Z,4.33
2018-06-05T06:18:07.944Z,4.27
2018-06-05T06:20:35.828Z,3.77
2018-06-05T06:23:03.703Z,3.93
2018-06-05T06:25:31.795Z,4.10
2018-06-05T06:27:59.884Z,3.83
2018-06-05T06:30:27.960Z,3.63
2018-06-05T06:32:56.053Z,4.03
2018-06-05T06:35:24.200Z,4.07
2018-06-05T06:37:52.288Z,4.10
2018-06-05T06:40:20.375Z,3.70
2018-06-05T06:42:48.472Z,4.27
2018-06-05T06:45:16.542Z,3.93
2018-06-05T06:47:44.639Z,3.80
2018-06-05T06:50:12.716Z,4.40
2018-06-05T06:52:40.807Z,3.77
2018-06-05T06:55:08.899Z,4.20
2018-06-05T06:57:36.997Z,3.90
2018-06-05T07:00:05.079Z,3.70
2018-06-05T07:02:33.179Z,3.77
2018-06-05T07:05:01.312Z,3.93
2018-06-05T07:07:29.394Z,3.47
2018-06-05T07:09:57.504Z,3.40
2018-06-05T07:12:25.600Z,3.70
2018-06-05T07:14:53.693Z,3.70
2018-06-05T07:17:21.791Z,3.70
2018-06-05T07:19:49.909Z,3.57
2018-06-05T07:22:18.016Z,3.77
2018-06-05T07:24:46.092Z,3.70
2018-06-05T07:27:14.173Z,3.70
2018-06-05T07:29:42.255Z,3.63
2018-06-05T07:32:10.368Z,3.90
2018-06-05T07:34:38.454Z,4.40
2018-06-05T07:37:06.536Z,4.40
2018-06-05T07:39:34.623Z,4.17
2018-06-05T07:42:02.509Z,3.50
2018-06-05T07:44:30.419Z,3.87
2018-06-05T07:46:58.516Z,3.50
2018-06-05T07:49:26.598Z,3.77
2018-06-05T07:51:54.711Z,3.80
2018-06-05T07:54:22.820Z,4.23
2018-06-05T07:56:50.920Z,3.90
2018-06-05T07:59:19.047Z,3.50
2018-06-05T08:01:47.145Z,4.10
2018-06-05T08:04:15.248Z,3.67
2018-06-05T08:06:43.110Z,3.40
2018-06-05T08:09:11.000Z,3.30
2018-06-05T08:11:39.078Z,3.40
2018-06-05T08:14:07.228Z,3.50
2018-06-05T08:16:35.095Z,4.43
2018-06-05T08:19:03.196Z,3.90
2018-06-05T08:21:31.307Z,3.60
2018-06-05T08:23:59.415Z,3.70
2018-06-05T08:26:36.523Z,3.57
2018-06-05T08:29:04.643Z,4.20
2018-06-05T08:31:32.723Z,4.10
2018-06-05T08:34:00.842Z,3.40
2018-06-05T08:36:28.942Z,3.40
2018-06-05T08:38:57.031Z,3.40
2018-06-05T08:41:25.108Z,4.10
2018-06-05T08:43:53.206Z,3.73
2018-06-05T08:46:21.991Z,3.93
2018-06-05T08:48:49.874Z,3.70
2018-06-05T08:51:17.957Z,4.60
2018-06-05T08:53:46.054Z,4.73
2018-06-05T08:56:14.147Z,4.77
2018-06-05T08:58:42.244Z,5.20
2018-06-05T09:01:10.104Z,4.60
2018-06-05T09:03:38.203Z,4.67
2018-06-05T09:06:06.308Z,5.20
2018-06-05T09:08:34.423Z,5.00
2018-06-05T09:11:02.517Z,5.10
2018-06-05T09:13:30.656Z,5.03
2018-06-05T09:15:58.767Z,5.13
2018-06-05T09:18:26.839Z,5.30
2018-06-05T09:20:54.922Z,4.70
2018-06-05T09:23:23.147Z,5.00
2018-06-05T09:25:51.523Z,5.67
2018-06-05T09:28:19.679Z,4.97
2018-06-05T09:30:47.779Z,5.20
2018-06-05T09:33:15.885Z,5.27
2018-06-05T09:35:44.016Z,4.60
2018-06-05T09:38:12.116Z,4.80
2018-06-05T09:40:40.236Z,5.03
2018-06-05T09:43:08.362Z,5.23
2018-06-05T09:45:36.248Z,5.00
2018-06-05T09:48:04.356Z,5.00
2018-06-05T09:50:32.471Z,4.97
2018-06-05T09:53:00.369Z,4.90
2018-06-05T09:55:28.464Z,4.67
2018-06-05T09:57:56.613Z,4.13
2018-06-05T10:00:30.163Z,4.53
2018-06-05T10:02:58.231Z,4.20
2018-06-05T10:05:26.387Z,4.00
2018-06-05T10:07:54.503Z,4.00
2018-06-05T10:10:22.384Z,4.73
2018-06-05T10:12:50.252Z,4.13
2018-06-05T10:15:18.150Z,3.83
2018-06-05T10:17:46.238Z,4.50
2018-06-05T10:20:14.388Z,4.03
2018-06-05T10:22:42.452Z,4.40
2018-06-05T10:25:10.572Z,4.20
2018-06-05T10:27:38.658Z,4.40
2018-06-05T10:30:06.756Z,4.10
2018-06-05T10:32:34.831Z,4.40
2018-06-05T10:35:02.939Z,3.77
2018-06-05T10:37:31.015Z,4.40
2018-06-05T10:39:59.113Z,4.00
2018-06-05T10:42:27.207Z,4.53
2018-06-05T10:44:55.117Z,4.07
2018-06-05T10:47:23.197Z,3.90
2018-06-05T10:49:51.287Z,3.70
2018-06-05T10:52:19.384Z,4.10
2018-06-05T10:54:47.471Z,3.93
2018-06-05T10:57:15.571Z,4.10
2018-06-05T10:59:43.692Z,4.10
2018-06-05T11:02:11.775Z,3.60
2018-06-05T11:04:39.875Z,4.07
2018-06-05T11:07:07.976Z,3.30
2018-06-05T11:09:36.074Z,3.57
2018-06-05T11:12:04.148Z,3.87
2018-06-05T11:14:32.243Z,3.87
2018-06-05T11:17:00.143Z,3.30
2018-06-05T11:19:28.231Z,3.57
2018-06-05T11:21:56.315Z,3.57
2018-06-05T11:24:24.412Z,3.43
2018-06-05T11:26:52.511Z,3.90
2018-06-05T11:29:20.602Z,3.40
2018-06-05T11:31:48.678Z,3.93
2018-06-05T11:34:16.782Z,3.40
2018-06-05T11:36:44.927Z,3.27
2018-06-05T11:39:12.963Z,3.80
2018-06-05T11:41:41.075Z,3.23
2018-06-05T11:44:09.154Z,3.60
2018-06-05T11:46:37.303Z,3.27
2018-06-05T11:49:05.327Z,3.50
2018-06-05T11:51:33.423Z,3.03
2018-06-05T11:54:01.568Z,3.57
2018-06-05T11:56:29.595Z,3.00
2018-06-05T11:58:57.700Z,2.70
2018-06-05T12:01:25.789Z,2.80
2018-06-05T12:03:53.889Z,3.67
2018-06-05T12:06:21.984Z,2.90
2018-06-05T12:08:50.087Z,2.80
2018-06-05T12:11:17.973Z,2.93
2018-06-05T12:13:46.071Z,2.87
2018-06-05T12:16:14.171Z,2.63
2018-06-05T12:18:42.259Z,3.10
2018-06-05T12:21:10.394Z,2.50
2018-06-05T12:23:38.279Z,2.60
2018-06-05T12:26:06.371Z,2.50
2018-06-05T12:28:34.507Z,3.37
2018-06-05T12:31:02.650Z,2.40
2018-06-05T12:33:30.723Z,2.63
2018-06-05T12:35:58.827Z,3.10
2018-06-05T12:38:26.928Z,3.13
2018-06-05T12:40:55.024Z,2.40
2018-06-05T12:43:23.131Z,2.80
2018-06-05T12:45:51.034Z,2.90
2018-06-05T12:48:19.116Z,2.90
2018-06-05T12:50:47.216Z,2.80
2018-06-05T12:53:15.301Z,2.60
2018-06-05T12:55:43.425Z,2.43
2018-06-05T12:58:11.497Z,2.80
2018-06-05T13:00:39.592Z,2.43
2018-06-05T13:03:07.676Z,2.27
2018-06-05T13:05:35.767Z,2.37
2018-06-05T13:08:03.876Z,2.57
2018-06-05T13:10:31.983Z,2.77
2018-06-05T13:13:00.087Z,2.70
2018-06-05T13:15:28.229Z,2.50
2018-06-05T13:17:56.312Z,3.37
2018-06-05T13:20:24.411Z,2.90
2018-06-05T13:22:52.667Z,2.97
2018-06-05T13:25:20.644Z,2.90
2018-06-05T13:27:48.741Z,2.70
2018-06-05T13:30:16.603Z,2.80
2018-06-05T13:32:44.713Z,3.10
2018-06-05T13:35:12.818Z,3.17
2018-06-05T13:37:40.917Z,2.97
2018-06-05T13:40:09.012Z,3.07
2018-06-05T13:42:37.104Z,3.07
2018-06-05T13:45:05.208Z,2.93
2018-06-05T13:47:33.301Z,2.93
2018-06-05T13:50:01.163Z,2.70
2018-06-05T13:52:29.287Z,3.03
2018-06-05T13:54:57.361Z,2.80
2018-06-05T13:57:25.447Z,2.40
2018-06-05T13:59:53.524Z,3.33
2018-06-05T14:02:21.623Z,3.10
2018-06-05T14:04:49.727Z,3.03
2018-06-05T14:07:17.858Z,2.80
2018-06-05T14:09:45.986Z,2.90
2018-06-05T14:12:14.112Z,3.23
2018-06-05T14:14:42.203Z,3.00
2018-06-05T14:17:10.303Z,3.27
2018-06-05T14:19:38.398Z,3.37
2018-06-05T14:22:06.699Z,3.00
2018-06-05T14:24:34.859Z,2.77
2018-06-05T14:27:02.978Z,2.97
2018-06-05T14:29:31.116Z,3.37
2018-06-05T14:31:58.985Z,3.13
2018-06-05T14:34:27.068Z,3.27
2018-06-05T14:36:55.156Z,2.53
2018-06-05T14:39:23.026Z,2.93
2018-06-05T14:41:50.894Z,2.83
2018-06-05T14:44:18.769Z,3.00
2018-06-05T14:46:46.648Z,3.30
2018-06-05T14:49:14.751Z,2.90
2018-06-05T14:51:42.843Z,2.90
2018-06-05T14:54:10.933Z,3.10
2018-06-05T14:56:39.051Z,3.23
2018-06-05T14:59:07.143Z,3.20
2018-06-05T15:01:35.259Z,3.60
2018-06-05T15:04:03.127Z,2.80
2018-06-05T15:06:31.214Z,3.50
2018-06-05T15:08:59.374Z,3.50
2018-06-05T15:11:27.480Z,3.17
2018-06-05T15:13:55.563Z,3.63
2018-06-05T15:16:23.692Z,3.40
2018-06-05T15:18:51.625Z,3.30
2018-06-05T15:21:19.896Z,3.37
2018-06-05T15:23:48.066Z,3.10
2018-06-05T15:26:16.447Z,3.50
2018-06-05T15:28:44.541Z,3.30
2018-06-05T15:31:12.614Z,3.50
2018-06-05T15:33:40.760Z,3.57
2018-06-05T15:36:09.022Z,3.80
2018-06-05T15:38:37.188Z,3.40
2018-06-05T15:41:05.372Z,3.23
2018-06-05T15:43:33.535Z,3.30
2018-06-05T15:46:01.754Z,3.90
2018-06-05T15:48:30.042Z,3.70
2018-06-05T15:50:58.231Z,3.77
2018-06-05T15:53:26.445Z,3.37
2018-06-05T15:55:54.551Z,3.80
2018-06-05T15:58:22.635Z,3.70
2018-06-05T16:00:51.185Z,3.30
2018-06-05T16:03:19.505Z,3.60
2018-06-05T16:05:47.620Z,3.30
2018-06-05T16:08:15.713Z,3.13
2018-06-05T16:10:43.811Z,3.20
2018-06-05T16:13:11.929Z,3.50
2018-06-05T16:15:40.143Z,3.60
2018-06-05T16:18:08.249Z,3.67
2018-06-05T16:20:36.371Z,3.63
2018-06-05T16:23:04.661Z,3.97
2018-06-05T16:25:32.823Z,3.57
2018-06-05T16:28:00.981Z,3.30
2018-06-05T16:30:29.083Z,3.30
2018-06-05T16:32:57.194Z,3.90
2018-06-05T16:35:25.315Z,3.60
2018-06-05T16:37:53.452Z,3.57
2018-06-05T16:40:21.330Z,3.97
2018-06-05T16:42:49.442Z,3.87
2018-06-05T16:45:17.654Z,4.10
2018-06-05T16:47:45.555Z,3.70
2018-06-05T16:50:13.797Z,3.80
2018-06-05T16:52:41.931Z,4.10
2018-06-05T16:55:10.086Z,4.83
2018-06-05T16:57:38.200Z,4.40
2018-06-05T17:00:06.300Z,5.20
2018-06-05T17:02:34.391Z,4.40
2018-06-05T17:05:02.532Z,4.57
2018-06-05T17:07:30.626Z,4.40
2018-06-05T17:09:58.737Z,4.83
2018-06-05T17:12:26.837Z,4.23
2018-06-05T17:14:54.932Z,4.83
2018-06-05T17:17:22.791Z,4.30
2018-06-05T17:19:50.679Z,4.47
2018-06-05T17:22:18.784Z,4.70
2018-06-05T17:24:46.888Z,5.60
2018-06-05T17:27:15.074Z,5.00
2018-06-05T17:29:43.111Z,4.33
2018-06-05T17:32:11.199Z,5.50
2018-06-05T17:34:39.310Z,4.97
2018-06-05T17:37:07.202Z,5.50
2018-06-05T17:39:35.323Z,5.60
2018-06-05T17:42:03.449Z,5.13
2018-06-05T17:44:31.547Z,5.47
2018-06-05T17:46:59.652Z,4.30
2018-06-05T17:49:27.790Z,4.67
2018-06-05T17:51:55.872Z,5.13
2018-06-05T17:54:23.983Z,5.07
2018-06-05T17:56:52.094Z,4.90
2018-06-05T17:59:20.183Z,4.47
2018-06-05T18:01:48.267Z,5.60
2018-06-05T18:04:16.399Z,4.90
2018-06-05T18:06:44.503Z,5.57
2018-06-05T18:09:12.595Z,4.87
2018-06-05T18:11:40.699Z,5.10
2018-06-05T18:14:08.792Z,4.90
2018-06-05T18:16:36.891Z,5.97
2018-06-05T18:19:04.784Z,4.90
2018-06-05T18:21:33.008Z,5.57
2018-06-05T18:24:01.051Z,5.40
2018-06-05T18:26:29.149Z,5.40
2018-06-05T18:28:57.249Z,4.57
2018-06-05T18:31:25.331Z,6.20
2018-06-05T18:33:53.436Z,5.17
2018-06-05T18:36:21.327Z,5.67
2018-06-05T18:38:49.422Z,5.80
2018-06-05T18:41:17.805Z,5.43
2018-06-05T18:43:45.910Z,4.73
2018-06-05T18:46:14.070Z,5.07
2018-06-05T18:48:42.131Z,6.20
2018-06-05T18:51:10.253Z,5.33
2018-06-05T18:53:38.364Z,5.07
2018-06-05T18:56:06.491Z,5.13
2018-06-05T18:58:34.640Z,5.50
2018-06-05T19:01:02.748Z,4.93
2018-06-05T19:03:30.858Z,5.27
2018-06-05T19:05:59.047Z,4.63
2018-06-05T19:08:27.208Z,5.13
2018-06-05T19:10:55.304Z,5.17
2018-06-05T19:13:23.408Z,5.20
2018-06-05T19:15:51.523Z,5.50
2018-06-05T19:18:19.606Z,5.00
2018-06-05T19:20:47.719Z,5.20
2018-06-05T19:23:15.832Z,5.60
2018-06-05T19:25:43.943Z,5.03
2018-06-05T19:28:12.036Z,5.90
2018-06-05T19:30:40.130Z,5.57
2018-06-05T19:33:08.368Z,5.10
2018-06-05T19:35:36.474Z,5.43
2018-06-05T19:38:04.594Z,4.90
2018-06-05T19:40:32.683Z,7.20
2018-06-05T19:43:00.800Z,6.33
2018-06-05T19:45:28.907Z,6.43
2018-06-05T19:47:57.101Z,5.60
2018-06-05T19:50:25.207Z,5.70
2018-06-05T19:52:53.287Z,6.00
2018-06-05T19:55:21.168Z,5.53
2018-06-05T19:57:49.262Z,5.90
2018-06-05T20:00:17.347Z,5.77
2018-06-05T20:02:45.438Z,5.00
2018-06-05T20:05:13.581Z,5.50
2018-06-05T20:07:41.664Z,5.70
2018-06-05T20:10:09.759Z,5.80
2018-06-05T20:12:37.844Z,4.87
2018-06-05T20:15:05.838Z,5.33
2018-06-05T20:17:34.057Z,5.50
2018-06-05T20:20:02.247Z,5.90
2018-06-05T20:22:30.347Z,5.00
2018-06-05T20:24:58.223Z,5.50
2018-06-05T20:27:26.317Z,6.27
2018-06-05T20:29:54.407Z,5.50
2018-06-05T20:32:22.515Z,6.03
2018-06-05T20:34:50.603Z,5.77
2018-06-05T20:37:18.792Z,5.20
2018-06-05T20:39:46.895Z,5.73
2018-06-05T20:42:14.993Z,5.53
2018-06-05T20:44:43.095Z,6.03
2018-06-05T20:47:11.223Z,5.57
2018-06-05T20:49:39.359Z,5.23
2018-06-05T20:52:07.475Z,5.20
2018-06-05T20:54:35.563Z,5.30
2018-06-05T20:57:03.659Z,5.53
2018-06-05T20:59:31.759Z,6.07
2018-06-05T21:01:59.876Z,5.10
2018-06-05T21:04:28.147Z,4.90
2018-06-05T21:06:56.299Z,5.27
2018-06-05T21:09:24.395Z,5.80
2018-06-05T21:11:52.511Z,5.17
2018-06-05T21:14:20.614Z,5.37
2018-06-05T21:16:48.721Z,5.47
2018-06-05T21:19:16.833Z,5.00
2018-06-05T21:21:44.972Z,4.90
2018-06-05T21:24:13.110Z,4.73
2018-06-05T21:26:41.191Z,4.83
2018-06-05T21:29:09.283Z,4.90
2018-06-05T21:31:37.398Z,4.60
2018-06-05T21:34:05.262Z,4.20
2018-06-05T21:36:33.369Z,5.93
2018-06-05T21:39:01.453Z,5.00
2018-06-05T21:41:29.586Z,5.70
2018-06-05T21:43:57.679Z,4.43
2018-06-05T21:46:25.792Z,4.67
2018-06-05T21:48:53.865Z,5.00
2018-06-05T21:51:21.962Z,4.93
2018-06-05T21:53:49.830Z,4.90
2018-06-05T21:56:17.923Z,5.53
2018-06-05T21:58:46.023Z,4.30
2018-06-05T22:01:14.126Z,4.60
2018-06-05T22:03:42.218Z,4.70
2018-06-05T22:06:10.308Z,5.20
2018-06-05T22:08:38.408Z,4.90
2018-06-05T22:11:06.494Z,5.40
2018-06-05T22:13:34.590Z,5.30
2018-06-05T22:16:02.685Z,4.83
2018-06-05T22:18:30.778Z,4.90
2018-06-05T22:20:58.857Z,5.07
2018-06-05T22:23:26.956Z,5.23
2018-06-05T22:25:55.047Z,5.67
2018-06-05T22:28:23.167Z,4.80
2018-06-05T22:30:51.286Z,6.40
2018-06-05T22:33:19.159Z,4.73
2018-06-05T22:35:47.247Z,4.90
2018-06-05T22:38:16.395Z,4.80
2018-06-05T22:40:44.563Z,4.33
2018-06-05T22:43:12.723Z,5.40
2018-06-05T22:45:40.816Z,4.70
2018-06-05T22:48:09.002Z,5.20
2018-06-05T22:50:37.103Z,5.80
2018-06-05T22:53:05.244Z,4.90
2018-06-05T22:55:33.352Z,4.60
2018-06-05T22:58:01.443Z,4.20
2018-06-05T23:00:31.338Z,5.20
2018-06-05T23:02:59.456Z,4.70
2018-06-05T23:05:27.570Z,6.10
2018-06-05T23:07:55.687Z,6.40
2018-06-05T23:10:23.775Z,4.87
2018-06-05T23:12:52.522Z,5.07
2018-06-05T23:15:20.640Z,4.50
2018-06-05T23:17:48.732Z,5.00
2018-06-05T23:20:16.832Z,5.40
2018-06-05T23:22:44.948Z,5.00
2018-06-05T23:25:13.039Z,5.00
2018-06-05T23:27:41.160Z,4.20
2018-06-05T23:30:09.256Z,4.57
2018-06-05T23:32:37.379Z,4.87
2018-06-05T23:35:05.463Z,5.00
2018-06-05T23:37:33.555Z,4.97
2018-06-05T23:40:01.728Z,4.93
2018-06-05T23:42:29.893Z,4.90
2018-06-05T23:44:57.967Z,5.07
2018-06-05T23:47:26.059Z,5.63
2018-06-05T23:49:54.151Z,4.90
2018-06-05T23:52:22.248Z,4.50
2018-06-05T23:54:50.312Z,5.00
2018-06-05T23:57:18.440Z,5.40
2018-06-05T23:59:46.563Z,4.43
